Time;durP1;ratioP1;P1;durP2;ratioP2;P2;SDS_P1;SDS_P2;PMS_P1;PMS_P2;Temp;Humidity;BMP_temperature;BMP_pressure;BME280_temperature;BME280_humidity;BME280_pressure;Samples;Min_cycle;Max_cycle;Signal;HPM_P1;HPM_P2
2021/08/29 00:00:52;;;;;;;7.10;4.23;;;;;;;;;;5015434;28;20451;-79
2021/08/29 00:03:18;;;;;;;5.50;3.97;;;;;;;;;;5033313;28;20499;-79
2021/08/29 00:05:44;;;;;;;5.67;4.77;;;;;;;;;;5015686;28;20834;-78
2021/08/29 00:08:10;;;;;;;7.50;4.80;;;;;;;;;;5033305;28;20420;-78
2021/08/29 00:10:36;;;;;;;10.30;5.63;;;;;;;;;;5032754;28;20460;-78
2021/08/29 00:13:02;;;;;;;15.23;5.07;;;;;;;;;;5032981;28;20808;-79
2021/08/29 00:15:28;;;;;;;15.27;4.97;;;;;;;;;;5032926;28;20462;-77
2021/08/29 00:17:54;;;;;;;10.40;5.57;;;;;;;;;;5032818;28;20470;-77
2021/08/29 00:20:20;;;;;;;9.30;5.10;;;;;;;;;;5032603;28;20444;-80
2021/08/29 00:22:46;;;;;;;14.30;5.30;;;;;;;;;;5032831;28;20472;-78
2021/08/29 00:25:12;;;;;;;9.67;5.47;;;;;;;;;;5015208;28;20467;-77
2021/08/29 00:27:38;;;;;;;6.57;4.80;;;;;;;;;;5032789;28;20476;-79
2021/08/29 00:30:04;;;;;;;11.53;5.03;;;;;;;;;;5032586;28;20433;-79
2021/08/29 00:32:30;;;;;;;7.43;4.50;;;;;;;;;;5032859;28;20463;-80
2021/08/29 00:34:56;;;;;;;6.93;4.93;;;;;;;;;;5032762;28;20416;-79
2021/08/29 00:37:22;;;;;;;12.63;4.60;;;;;;;;;;5015064;28;20504;-78
2021/08/29 00:39:48;;;;;;;10.07;4.30;;;;;;;;;;5032284;28;20479;-80
2021/08/29 00:42:14;;;;;;;8.50;5.20;;;;;;;;;;5032544;28;20987;-79
2021/08/29 00:44:40;;;;;;;12.97;5.90;;;;;;;;;;5032750;28;20464;-78
2021/08/29 00:47:07;;;;;;;7.37;5.00;;;;;;;;;;5032712;28;20409;-78
2021/08/29 00:49:36;;;;;;;9.03;5.67;;;;;;;;;;5014802;28;20441;-79
2021/08/29 00:52:02;;;;;;;11.90;6.30;;;;;;;;;;5032561;28;20423;-79
2021/08/29 00:54:32;;;;;;;6.90;5.60;;;;;;;;;;5032828;28;20462;-78
2021/08/29 00:56:58;;;;;;;7.63;4.87;;;;;;;;;;5015287;28;20409;-78
2021/08/29 00:59:25;;;;;;;14.37;4.93;;;;;;;;;;5035756;28;20933;-78
2021/08/29 01:01:55;;;;;;;7.43;4.90;;;;;;;;;;5018907;28;20457;-78
2021/08/29 01:04:24;;;;;;;8.90;4.73;;;;;;;;;;5036053;28;20405;-79
2021/08/29 01:06:54;;;;;;;10.30;5.00;;;;;;;;;;5036271;28;20409;-78
2021/08/29 01:09:20;;;;;;;6.63;5.03;;;;;;;;;;5035784;28;20432;-77
2021/08/29 01:11:50;;;;;;;8.20;5.67;;;;;;;;;;5036032;28;20416;-79
2021/08/29 01:14:19;;;;;;;11.97;5.70;;;;;;;;;;5035778;28;20426;-78
2021/08/29 01:16:46;;;;;;;7.20;6.20;;;;;;;;;;5036057;28;20482;-79
2021/08/29 01:19:16;;;;;;;7.80;5.73;;;;;;;;;;5018163;28;20959;-78
2021/08/29 01:21:43;;;;;;;11.97;8.43;;;;;;;;;;5035881;28;20884;-78
2021/08/29 01:24:11;;;;;;;13.03;8.60;;;;;;;;;;5035613;28;20482;-78
2021/08/29 01:26:43;;;;;;;9.50;7.90;;;;;;;;;;5035738;28;20954;-79
2021/08/29 01:29:11;;;;;;;16.73;8.30;;;;;;;;;;5035552;28;20436;-79
2021/08/29 01:31:38;;;;;;;12.10;8.87;;;;;;;;;;5035690;28;20436;-77
2021/08/29 01:34:08;;;;;;;12.37;6.90;;;;;;;;;;5035535;28;20412;-78
2021/08/29 01:36:35;;;;;;;9.07;6.70;;;;;;;;;;5035624;28;20420;-77
2021/08/29 01:39:02;;;;;;;8.87;7.53;;;;;;;;;;5035192;28;20437;-80
2021/08/29 01:41:28;;;;;;;13.40;8.20;;;;;;;;;;5035394;28;20448;-77
2021/08/29 01:43:55;;;;;;;16.87;7.70;;;;;;;;;;5035322;28;20483;-78
2021/08/29 01:46:22;;;;;;;10.77;7.00;;;;;;;;;;5035520;28;20733;-78
2021/08/29 01:48:48;;;;;;;9.13;6.43;;;;;;;;;;5035187;28;20416;-79
2021/08/29 01:51:15;;;;;;;11.10;7.23;;;;;;;;;;5035401;28;20409;-79
2021/08/29 01:53:41;;;;;;;10.73;7.33;;;;;;;;;;5035391;28;20421;-80
2021/08/29 01:56:08;;;;;;;8.37;6.57;;;;;;;;;;5035233;28;20768;-78
2021/08/29 01:58:34;;;;;;;16.10;8.43;;;;;;;;;;5034744;28;20478;-80
2021/08/29 02:01:02;;;;;;;9.67;6.30;;;;;;;;;;5035138;28;20447;-78
2021/08/29 02:03:29;;;;;;;11.90;8.10;;;;;;;;;;5035103;28;20456;-78
2021/08/29 02:06:04;;;;;;;12.60;7.73;;;;;;;;;;5035061;28;20428;-77
2021/08/29 02:08:30;;;;;;;10.80;7.93;;;;;;;;;;5035166;28;20405;-78
2021/08/29 02:10:59;;;;;;;13.10;8.40;;;;;;;;;;5033932;28;20433;-77
2021/08/29 02:13:26;;;;;;;8.80;6.90;;;;;;;;;;5035186;28;20412;-78
2021/08/29 02:15:56;;;;;;;11.60;7.30;;;;;;;;;;5035053;28;20409;-77
2021/08/29 02:18:23;;;;;;;11.77;7.57;;;;;;;;;;5035066;28;20869;-81
2021/08/29 02:20:50;;;;;;;8.93;8.03;;;;;;;;;;5016537;28;20448;-80
2021/08/29 02:23:17;;;;;;;12.60;7.43;;;;;;;;;;5034544;28;20456;-78
2021/08/29 02:25:47;;;;;;;10.67;7.70;;;;;;;;;;5034700;28;20413;-77
2021/08/29 02:28:13;;;;;;;9.40;7.43;;;;;;;;;;5017128;28;20897;-76
2021/08/29 02:30:40;;;;;;;13.07;7.43;;;;;;;;;;5034133;28;20777;-80
2021/08/29 02:33:06;;;;;;;9.50;7.23;;;;;;;;;;5034619;28;20412;-78
2021/08/29 02:35:32;;;;;;;9.83;7.50;;;;;;;;;;5016995;28;20463;-80
2021/08/29 02:37:59;;;;;;;9.30;6.90;;;;;;;;;;5034474;28;20409;-80
2021/08/29 02:40:25;;;;;;;15.40;7.73;;;;;;;;;;5033884;28;20460;-77
2021/08/29 02:42:51;;;;;;;9.00;7.27;;;;;;;;;;5034015;28;20530;-80
2021/08/29 02:45:18;;;;;;;13.57;7.33;;;;;;;;;;5034239;28;20409;-78
2021/08/29 02:47:44;;;;;;;19.40;8.37;;;;;;;;;;5034125;28;20500;-80
2021/08/29 02:50:10;;;;;;;11.83;8.30;;;;;;;;;;5033780;28;20921;-80
2021/08/29 02:52:40;;;;;;;10.10;7.77;;;;;;;;;;5034166;28;20448;-79
2021/08/29 02:55:06;;;;;;;10.60;7.20;;;;;;;;;;5034004;28;20955;-80
2021/08/29 02:57:36;;;;;;;9.07;6.67;;;;;;;;;;5034305;28;20762;-78
2021/08/29 03:00:03;;;;;;;9.60;6.50;;;;;;;;;;5033680;28;20769;-79
2021/08/29 03:02:29;;;;;;;16.40;7.70;;;;;;;;;;5034031;28;20463;-78
2021/08/29 03:04:55;;;;;;;13.83;8.60;;;;;;;;;;5033995;28;20784;-79
2021/08/29 03:07:22;;;;;;;9.93;7.87;;;;;;;;;;5033902;28;20411;-80
2021/08/29 03:09:48;;;;;;;10.13;7.60;;;;;;;;;;5033538;28;20425;-79
2021/08/29 03:12:14;;;;;;;9.13;6.77;;;;;;;;;;5033776;28;20421;-79
2021/08/29 03:14:42;;;;;;;9.80;6.30;;;;;;;;;;5016163;28;20435;-80
2021/08/29 03:17:08;;;;;;;13.10;7.30;;;;;;;;;;5033573;28;20856;-80
2021/08/29 03:19:35;;;;;;;13.70;6.53;;;;;;;;;;5015410;28;20516;-78
2021/08/29 03:22:01;;;;;;;17.27;7.53;;;;;;;;;;5033780;28;20464;-78
2021/08/29 03:24:27;;;;;;;12.13;7.60;;;;;;;;;;5033764;28;20799;-78
2021/08/29 03:26:53;;;;;;;10.97;7.17;;;;;;;;;;5015877;28;20451;-79
2021/08/29 03:29:19;;;;;;;14.67;7.03;;;;;;;;;;5033113;28;20441;-78
2021/08/29 03:31:45;;;;;;;12.03;8.33;;;;;;;;;;5033729;28;20497;-79
2021/08/29 03:34:13;;;;;;;17.93;8.03;;;;;;;;;;5015541;28;20906;-78
2021/08/29 03:36:41;;;;;;;13.13;7.90;;;;;;;;;;5033384;28;20554;-78
2021/08/29 03:39:07;;;;;;;13.17;7.07;;;;;;;;;;5032729;28;20479;-80
2021/08/29 03:41:33;;;;;;;13.90;7.97;;;;;;;;;;5033182;28;20779;-78
2021/08/29 03:44:00;;;;;;;14.40;6.90;;;;;;;;;;5033260;28;20419;-79
2021/08/29 03:46:26;;;;;;;9.63;6.10;;;;;;;;;;5033265;28;20409;-79
2021/08/29 03:48:52;;;;;;;9.90;7.00;;;;;;;;;;5033148;28;20420;-80
2021/08/29 03:51:19;;;;;;;12.70;7.80;;;;;;;;;;5015713;28;20444;-78
2021/08/29 03:53:45;;;;;;;10.43;7.80;;;;;;;;;;5033298;28;20409;-79
2021/08/29 03:56:12;;;;;;;10.43;7.43;;;;;;;;;;5033118;28;20409;-76
2021/08/29 03:58:39;;;;;;;10.03;6.27;;;;;;;;;;5032856;28;20417;-78
2021/08/29 04:01:06;;;;;;;15.03;7.47;;;;;;;;;;5033260;28;20792;-77
2021/08/29 04:03:32;;;;;;;15.00;7.83;;;;;;;;;;5032745;28;20555;-77
2021/08/29 04:06:02;;;;;;;15.67;7.57;;;;;;;;;;5033002;28;20475;-79
2021/08/29 04:08:30;;;;;;;11.37;7.00;;;;;;;;;;5032921;28;20956;-79
2021/08/29 04:10:58;;;;;;;13.33;8.33;;;;;;;;;;5032845;28;20492;-79
2021/08/29 04:13:25;;;;;;;12.90;7.13;;;;;;;;;;5032978;28;20504;-78
2021/08/29 04:15:51;;;;;;;15.90;7.80;;;;;;;;;;5033237;28;20846;-80
2021/08/29 04:18:20;;;;;;;8.73;6.40;;;;;;;;;;5033188;28;20417;-78
2021/08/29 04:20:46;;;;;;;12.30;7.87;;;;;;;;;;5014690;28;20527;-77
2021/08/29 04:23:12;;;;;;;17.53;8.20;;;;;;;;;;5032954;28;20807;-78
2021/08/29 04:25:38;;;;;;;12.97;9.07;;;;;;;;;;5032873;28;20405;-77
2021/08/29 04:28:05;;;;;;;9.53;7.33;;;;;;;;;;5032900;28;20409;-80
2021/08/29 04:30:31;;;;;;;12.27;8.00;;;;;;;;;;5032446;28;20900;-79
2021/08/29 04:32:57;;;;;;;12.07;7.40;;;;;;;;;;5034303;28;20421;-78
2021/08/29 04:35:23;;;;;;;14.63;7.10;;;;;;;;;;5036690;28;20416;-78
2021/08/29 04:37:51;;;;;;;14.30;8.17;;;;;;;;;;5036648;28;20412;-78
2021/08/29 04:40:17;;;;;;;9.80;8.03;;;;;;;;;;5036244;28;20466;-77
2021/08/29 04:42:43;;;;;;;15.00;9.00;;;;;;;;;;5036703;28;20468;-79
2021/08/29 04:45:09;;;;;;;12.80;7.90;;;;;;;;;;5036748;28;20415;-79
2021/08/29 04:47:35;;;;;;;14.90;7.63;;;;;;;;;;5036572;28;20413;-79
2021/08/29 04:50:01;;;;;;;15.83;8.90;;;;;;;;;;5018580;28;20824;-78
2021/08/29 04:52:27;;;;;;;17.73;9.03;;;;;;;;;;5018807;28;20425;-77
2021/08/29 04:54:53;;;;;;;15.43;8.90;;;;;;;;;;5036724;28;20791;-80
2021/08/29 04:57:19;;;;;;;15.47;8.53;;;;;;;;;;5036508;28;20416;-77
2021/08/29 04:59:45;;;;;;;13.10;8.73;;;;;;;;;;5035887;28;20871;-79
2021/08/29 05:02:11;;;;;;;13.37;7.70;;;;;;;;;;5036546;28;20467;-78
2021/08/29 05:04:37;;;;;;;15.33;8.83;;;;;;;;;;5018825;28;20423;-77
2021/08/29 05:07:03;;;;;;;16.10;9.83;;;;;;;;;;5036371;28;20409;-79
2021/08/29 05:09:29;;;;;;;17.03;8.63;;;;;;;;;;5035863;28;20520;-78
2021/08/29 05:11:55;;;;;;;15.53;8.47;;;;;;;;;;5018514;28;20494;-79
2021/08/29 05:14:21;;;;;;;12.57;7.97;;;;;;;;;;5036198;28;20413;-79
2021/08/29 05:16:47;;;;;;;13.50;7.73;;;;;;;;;;5036209;28;20745;-79
2021/08/29 05:19:13;;;;;;;9.70;7.33;;;;;;;;;;5035597;28;20424;-81
2021/08/29 05:21:39;;;;;;;15.07;8.57;;;;;;;;;;5018437;28;20968;-78
2021/08/29 05:24:05;;;;;;;12.67;7.70;;;;;;;;;;5035733;28;20416;-77
2021/08/29 05:26:31;;;;;;;15.30;8.00;;;;;;;;;;5036037;28;20409;-78
2021/08/29 05:28:57;;;;;;;14.07;7.57;;;;;;;;;;5035439;28;20486;-78
2021/08/29 05:31:23;;;;;;;14.43;7.73;;;;;;;;;;5001906;28;20433;-78
2021/08/29 05:33:49;;;;;;;13.37;8.23;;;;;;;;;;5035741;28;20956;-78
2021/08/29 05:36:15;;;;;;;22.03;9.00;;;;;;;;;;5035531;28;20421;-77
2021/08/29 05:38:41;;;;;;;16.37;7.83;;;;;;;;;;5035283;28;20462;-80
2021/08/29 05:41:07;;;;;;;26.43;9.27;;;;;;;;;;5017886;28;20439;-78
2021/08/29 05:43:33;;;;;;;11.07;8.43;;;;;;;;;;5035009;28;20968;-80
2021/08/29 05:45:59;;;;;;;14.97;9.33;;;;;;;;;;5034884;28;20415;-79
2021/08/29 05:48:25;;;;;;;14.13;7.47;;;;;;;;;;5035229;28;20421;-77
2021/08/29 05:50:51;;;;;;;12.10;7.20;;;;;;;;;;5035197;28;20822;-77
2021/08/29 05:53:17;;;;;;;16.47;7.17;;;;;;;;;;5017570;28;20452;-79
2021/08/29 05:55:43;;;;;;;14.10;8.07;;;;;;;;;;5035296;28;20420;-80
2021/08/29 05:58:09;;;;;;;15.33;8.30;;;;;;;;;;5017627;28;20925;-78
2021/08/29 06:00:35;;;;;;;16.47;9.03;;;;;;;;;;5034884;28;20498;-79
2021/08/29 06:03:01;;;;;;;13.63;7.97;;;;;;;;;;5017683;28;20462;-80
2021/08/29 06:05:27;;;;;;;11.40;7.60;;;;;;;;;;5035154;28;20478;-80
2021/08/29 06:07:54;;;;;;;14.47;8.87;;;;;;;;;;5035207;28;20838;-79
2021/08/29 06:10:20;;;;;;;18.93;8.73;;;;;;;;;;5034452;28;20425;-80
2021/08/29 06:12:46;;;;;;;13.63;7.97;;;;;;;;;;5034908;28;20448;-80
2021/08/29 06:15:12;;;;;;;20.13;8.30;;;;;;;;;;5034958;28;20897;-77
2021/08/29 06:17:38;;;;;;;19.27;9.40;;;;;;;;;;5034848;28;20778;-79
2021/08/29 06:20:05;;;;;;;15.70;7.50;;;;;;;;;;5017007;28;20441;-81
2021/08/29 06:22:31;;;;;;;12.57;7.70;;;;;;;;;;5017092;28;20475;-78
2021/08/29 06:24:57;;;;;;;11.27;7.40;;;;;;;;;;5034942;28;20417;-80
2021/08/29 06:27:23;;;;;;;14.47;7.40;;;;;;;;;;5034899;28;20406;-77
2021/08/29 06:29:49;;;;;;;8.90;7.60;;;;;;;;;;5034495;28;20789;-79
2021/08/29 06:32:15;;;;;;;13.13;6.47;;;;;;;;;;5034619;28;20479;-78
2021/08/29 06:34:41;;;;;;;14.73;7.03;;;;;;;;;;5034509;28;20417;-79
2021/08/29 06:37:07;;;;;;;14.53;6.80;;;;;;;;;;5034520;28;20467;-77
2021/08/29 06:39:33;;;;;;;13.67;6.30;;;;;;;;;;5033989;28;20449;-79
2021/08/29 06:41:59;;;;;;;11.67;6.97;;;;;;;;;;5034370;28;20948;-80
2021/08/29 06:44:25;;;;;;;18.83;6.80;;;;;;;;;;5034315;28;20420;-79
2021/08/29 06:46:51;;;;;;;16.77;7.50;;;;;;;;;;5016321;28;20417;-79
2021/08/29 06:49:17;;;;;;;10.63;6.43;;;;;;;;;;5033818;28;20447;-80
2021/08/29 06:51:43;;;;;;;14.27;7.87;;;;;;;;;;5034358;28;20424;-80
2021/08/29 06:54:09;;;;;;;15.37;6.80;;;;;;;;;;5034189;28;20417;-79
2021/08/29 06:56:35;;;;;;;13.17;7.67;;;;;;;;;;5033867;28;20902;-81
2021/08/29 06:59:01;;;;;;;11.17;7.30;;;;;;;;;;5033707;28;20444;-78
2021/08/29 07:01:27;;;;;;;12.87;7.30;;;;;;;;;;5016376;28;20778;-79
2021/08/29 07:03:53;;;;;;;12.37;6.57;;;;;;;;;;5034164;28;20457;-81
2021/08/29 07:06:19;;;;;;;16.13;6.70;;;;;;;;;;5034016;28;20512;-79
2021/08/29 07:08:44;;;;;;;13.20;7.63;;;;;;;;;;5033724;28;20909;-77
2021/08/29 07:11:11;;;;;;;17.47;7.50;;;;;;;;;;5033985;28;20512;-78
2021/08/29 07:13:37;;;;;;;11.90;6.50;;;;;;;;;;5034078;28;20921;-77
2021/08/29 07:16:03;;;;;;;14.57;8.07;;;;;;;;;;5033964;28;20420;-79
2021/08/29 07:18:29;;;;;;;10.23;7.00;;;;;;;;;;5033932;28;20436;-80
2021/08/29 07:20:55;;;;;;;16.20;8.50;;;;;;;;;;5033554;28;20463;-78
2021/08/29 07:23:21;;;;;;;12.60;7.17;;;;;;;;;;5033634;28;20472;-78
2021/08/29 07:25:47;;;;;;;11.20;6.60;;;;;;;;;;5033695;28;20413;-77
2021/08/29 07:28:13;;;;;;;11.57;6.90;;;;;;;;;;5033734;28;20405;-78
2021/08/29 07:30:39;;;;;;;15.40;7.27;;;;;;;;;;5033333;28;20779;-81
2021/08/29 07:33:05;;;;;;;14.20;7.00;;;;;;;;;;5033573;28;20405;-78
2021/08/29 07:35:31;;;;;;;10.83;7.57;;;;;;;;;;5033658;28;20779;-78
2021/08/29 07:37:57;;;;;;;10.13;6.33;;;;;;;;;;5033571;28;20413;-78
2021/08/29 07:40:23;;;;;;;13.53;5.83;;;;;;;;;;5033109;28;20458;-77
2021/08/29 07:42:49;;;;;;;10.97;6.90;;;;;;;;;;5033454;28;20454;-77
2021/08/29 07:45:16;;;;;;;11.37;7.10;;;;;;;;;;5033297;28;20429;-78
2021/08/29 07:47:42;;;;;;;12.83;6.23;;;;;;;;;;5033334;28;20413;-81
2021/08/29 07:50:08;;;;;;;11.40;6.70;;;;;;;;;;5032761;28;20441;-81
2021/08/29 07:52:34;;;;;;;12.20;7.10;;;;;;;;;;5033356;28;20404;-78
2021/08/29 07:55:00;;;;;;;10.40;6.33;;;;;;;;;;5015900;28;20420;-79
2021/08/29 07:57:26;;;;;;;13.87;6.87;;;;;;;;;;5015585;28;20415;-79
2021/08/29 07:59:52;;;;;;;9.00;6.43;;;;;;;;;;5032839;28;20523;-79
2021/08/29 08:02:18;;;;;;;8.57;6.07;;;;;;;;;;5033185;28;20818;-77
2021/08/29 08:04:44;;;;;;;11.17;6.23;;;;;;;;;;5033145;28;20431;-78
2021/08/29 08:07:12;;;;;;;14.80;7.40;;;;;;;;;;5014962;28;20460;-81
2021/08/29 08:09:38;;;;;;;10.00;6.10;;;;;;;;;;5032849;28;20475;-79
2021/08/29 08:12:04;;;;;;;17.67;8.20;;;;;;;;;;5032940;28;20444;-81
2021/08/29 08:14:30;;;;;;;12.03;7.70;;;;;;;;;;5033049;28;20742;-78
2021/08/29 08:16:56;;;;;;;15.13;7.43;;;;;;;;;;5033264;28;20416;-79
2021/08/29 08:19:22;;;;;;;19.37;8.10;;;;;;;;;;5015009;28;20444;-79
2021/08/29 08:21:48;;;;;;;13.30;8.63;;;;;;;;;;5015418;28;20413;-79
2021/08/29 08:24:14;;;;;;;17.13;8.43;;;;;;;;;;5032938;28;20413;-77
2021/08/29 08:26:40;;;;;;;13.53;8.33;;;;;;;;;;5033108;28;20410;-79
2021/08/29 08:29:06;;;;;;;16.07;8.17;;;;;;;;;;5032700;28;20796;-80
2021/08/29 08:31:32;;;;;;;16.80;9.50;;;;;;;;;;5032885;28;20416;-81
2021/08/29 08:33:58;;;;;;;16.13;8.83;;;;;;;;;;5033116;28;20415;-80
2021/08/29 08:36:24;;;;;;;15.30;9.37;;;;;;;;;;5032739;28;20885;-81
2021/08/29 08:38:49;;;;;;;14.53;8.77;;;;;;;;;;5032614;28;20479;-79
2021/08/29 08:41:18;;;;;;;21.33;10.00;;;;;;;;;;5032665;28;20791;-82
2021/08/29 08:43:44;;;;;;;19.40;10.20;;;;;;;;;;5032513;28;20987;-80
2021/08/29 08:46:11;;;;;;;18.57;10.70;;;;;;;;;;5032882;28;20405;-79
2021/08/29 08:48:38;;;;;;;18.80;9.40;;;;;;;;;;5032352;28;20409;-79
2021/08/29 08:51:07;;;;;;;17.27;9.83;;;;;;;;;;5032757;28;20440;-79
2021/08/29 08:53:33;;;;;;;17.13;8.90;;;;;;;;;;5032580;28;20405;-81
2021/08/29 08:56:00;;;;;;;15.13;10.40;;;;;;;;;;5032172;28;20424;-79
2021/08/29 08:58:27;;;;;;;21.00;10.70;;;;;;;;;;5032463;28;20413;-78
2021/08/29 09:00:53;;;;;;;16.40;9.10;;;;;;;;;;5032333;28;20523;-81
2021/08/29 09:03:20;;;;;;;14.03;8.60;;;;;;;;;;5032542;28;20601;-80
2021/08/29 09:05:46;;;;;;;11.60;7.70;;;;;;;;;;5032524;28;20532;-79
2021/08/29 09:08:12;;;;;;;13.50;8.17;;;;;;;;;;5032578;28;20492;-81
2021/08/29 09:10:38;;;;;;;16.90;8.20;;;;;;;;;;5032254;28;20965;-81
2021/08/29 09:13:06;;;;;;;12.53;7.80;;;;;;;;;;5032602;28;20427;-80
2021/08/29 09:15:33;;;;;;;18.00;8.30;;;;;;;;;;5032639;28;20412;-80
2021/08/29 09:17:59;;;;;;;17.97;8.80;;;;;;;;;;5032580;28;20417;-79
2021/08/29 09:20:26;;;;;;;17.30;9.03;;;;;;;;;;5035545;28;20439;-82
2021/08/29 09:22:54;;;;;;;12.70;8.27;;;;;;;;;;5035956;28;20800;-80
2021/08/29 09:25:21;;;;;;;12.70;7.90;;;;;;;;;;5035931;28;20496;-79
2021/08/29 09:27:48;;;;;;;13.77;9.07;;;;;;;;;;5018011;28;20405;-80
2021/08/29 09:30:15;;;;;;;16.90;8.23;;;;;;;;;;5035320;28;20450;-80
2021/08/29 09:32:47;;;;;;;12.63;7.43;;;;;;;;;;5035928;28;20764;-80
2021/08/29 09:35:14;;;;;;;10.70;7.60;;;;;;;;;;5035817;28;20480;-81
2021/08/29 09:37:40;;;;;;;14.20;8.00;;;;;;;;;;5035887;28;20496;-81
2021/08/29 09:40:16;;;;;;;12.77;8.40;;;;;;;;;;5035148;28;20506;-82
2021/08/29 09:42:43;;;;;;;13.50;7.60;;;;;;;;;;5035718;28;20464;-82
2021/08/29 09:45:10;;;;;;;11.73;8.33;;;;;;;;;;5035770;28;20815;-82
2021/08/29 09:47:36;;;;;;;19.23;8.30;;;;;;;;;;5035492;28;20491;-81
2021/08/29 09:50:08;;;;;;;12.13;7.67;;;;;;;;;;5017602;28;20428;-81
2021/08/29 09:52:34;;;;;;;21.10;9.23;;;;;;;;;;5035432;28;20440;-80
2021/08/29 09:55:00;;;;;;;17.50;9.03;;;;;;;;;;5035456;28;20432;-81
2021/08/29 09:57:26;;;;;;;14.97;8.13;;;;;;;;;;5017637;28;20421;-81
2021/08/29 09:59:53;;;;;;;14.03;9.67;;;;;;;;;;5034970;28;20921;-81
2021/08/29 10:02:20;;;;;;;16.77;10.80;;;;;;;;;;5035468;28;20475;-81
2021/08/29 10:04:46;;;;;;;14.50;9.50;;;;;;;;;;5035235;28;20416;-80
2021/08/29 10:07:13;;;;;;;14.43;8.10;;;;;;;;;;5017416;28;20495;-81
2021/08/29 10:09:40;;;;;;;16.63;10.17;;;;;;;;;;5034962;28;20432;-82
2021/08/29 10:12:07;;;;;;;14.57;10.20;;;;;;;;;;5035071;28;20495;-83
2021/08/29 10:14:34;;;;;;;13.07;7.77;;;;;;;;;;5035064;28;20413;-83
2021/08/29 10:17:00;;;;;;;15.63;7.70;;;;;;;;;;5035028;28;20441;-83
2021/08/29 10:19:27;;;;;;;12.30;7.60;;;;;;;;;;5034561;28;20429;-83
2021/08/29 10:21:53;;;;;;;12.40;7.70;;;;;;;;;;5034921;28;20449;-83
2021/08/29 10:24:20;;;;;;;16.30;8.23;;;;;;;;;;5034900;28;20475;-82
2021/08/29 10:26:48;;;;;;;11.63;8.47;;;;;;;;;;5034745;28;20405;-81
2021/08/29 10:29:18;;;;;;;12.47;9.10;;;;;;;;;;5034425;28;20431;-81
2021/08/29 10:31:48;;;;;;;10.63;7.43;;;;;;;;;;5034119;28;20913;-82
2021/08/29 10:34:15;;;;;;;17.70;9.00;;;;;;;;;;5034595;28;20898;-82
2021/08/29 10:36:41;;;;;;;11.13;7.47;;;;;;;;;;5034508;28;20413;-82
2021/08/29 10:39:07;;;;;;;11.90;7.87;;;;;;;;;;5016293;28;20432;-82
2021/08/29 10:41:34;;;;;;;16.00;7.90;;;;;;;;;;5034588;28;20396;-81
2021/08/29 10:44:00;;;;;;;16.50;8.53;;;;;;;;;;5034547;28;20468;-83
2021/08/29 10:46:27;;;;;;;12.70;7.37;;;;;;;;;;5034300;28;20416;-81
2021/08/29 10:48:54;;;;;;;14.97;7.83;;;;;;;;;;5034242;28;20931;-82
2021/08/29 10:51:24;;;;;;;18.00;8.10;;;;;;;;;;5034302;28;20882;-81
2021/08/29 10:53:51;;;;;;;11.23;7.30;;;;;;;;;;5034244;28;20447;-84
2021/08/29 10:56:17;;;;;;;10.13;7.00;;;;;;;;;;5034163;28;20401;-82
2021/08/29 10:58:47;;;;;;;7.73;5.57;;;;;;;;;;5033620;28;20400;-82
2021/08/29 11:01:31;;;;;;;9.50;6.90;;;;;;;;;;5034084;28;20452;-82
2021/08/29 11:03:57;;;;;;;7.50;5.20;;;;;;;;;;5034098;28;20564;-81
2021/08/29 11:06:42;;;;;;;9.17;5.10;;;;;;;;;;5034018;28;20441;-81
2021/08/29 11:09:27;;;;;;;6.70;5.53;;;;;;;;;;5015715;28;21362;-81
2021/08/29 11:11:53;;;;;;;10.73;6.00;;;;;;;;;;5034212;28;20409;-82
2021/08/29 11:14:37;;;;;;;10.20;6.20;;;;;;;;;;5033942;28;20808;-82
2021/08/29 11:17:10;;;;;;;14.00;6.70;;;;;;;;;;5016249;28;20616;-82
2021/08/29 11:19:40;;;;;;;12.87;6.73;;;;;;;;;;5033250;28;20429;-81
2021/08/29 11:22:09;;;;;;;9.80;5.70;;;;;;;;;;5033789;28;20452;-82
2021/08/29 11:24:54;;;;;;;9.90;5.20;;;;;;;;;;5033587;28;20416;-82
2021/08/29 11:27:36;;;;;;;8.03;5.20;;;;;;;;;;5033671;28;20376;-82
2021/08/29 11:30:13;;;;;;;7.57;5.47;;;;;;;;;;5033178;28;20432;-83
2021/08/29 11:32:45;;;;;;;7.97;3.83;;;;;;;;;;5033665;28;20397;-83
2021/08/29 11:35:18;;;;;;;7.67;4.33;;;;;;;;;;5033343;28;20406;-82
2021/08/29 11:38:00;;;;;;;6.07;4.77;;;;;;;;;;5033290;28;20417;-82
2021/08/29 11:40:26;;;;;;;5.90;4.60;;;;;;;;;;5015117;28;20460;-82
2021/08/29 11:43:11;;;;;;;5.07;4.10;;;;;;;;;;5032359;28;20827;-83
2021/08/29 11:45:37;;;;;;;8.57;3.70;;;;;;;;;;5033280;28;20396;-83
2021/08/29 11:48:03;;;;;;;3.60;3.10;;;;;;;;;;5033263;28;20459;-83
2021/08/29 11:50:31;;;;;;;4.70;3.00;;;;;;;;;;5032808;28;20810;-83
2021/08/29 11:52:59;;;;;;;3.77;3.30;;;;;;;;;;5033249;28;20409;-84
2021/08/29 11:55:25;;;;;;;5.23;3.43;;;;;;;;;;5032975;28;20458;-82
2021/08/29 11:57:52;;;;;;;6.00;3.90;;;;;;;;;;5033083;28;20420;-82
2021/08/29 12:00:19;;;;;;;8.60;4.43;;;;;;;;;;5032896;28;20829;-82
2021/08/29 12:02:46;;;;;;;5.87;2.90;;;;;;;;;;5032938;28;20456;-82
2021/08/29 12:05:15;;;;;;;5.23;3.83;;;;;;;;;;5032905;28;20409;-82
2021/08/29 12:08:00;;;;;;;3.80;3.10;;;;;;;;;;5015345;28;20491;-82
2021/08/29 12:10:26;;;;;;;3.73;3.40;;;;;;;;;;5032710;28;20417;-81
2021/08/29 12:12:53;;;;;;;5.13;3.60;;;;;;;;;;5033107;28;20466;-81
2021/08/29 12:15:19;;;;;;;4.93;4.17;;;;;;;;;;5015150;28;20508;-81
2021/08/29 12:17:46;;;;;;;5.57;3.80;;;;;;;;;;5015534;28;20497;-81
2021/08/29 12:20:12;;;;;;;5.47;4.73;;;;;;;;;;5032536;28;20421;-82
2021/08/29 12:22:38;;;;;;;8.00;5.33;;;;;;;;;;5032992;28;20492;-82
2021/08/29 12:25:05;;;;;;;7.27;5.90;;;;;;;;;;5032660;28;20397;-82
2021/08/29 12:27:31;;;;;;;5.47;4.97;;;;;;;;;;4998772;28;20571;-81
2021/08/29 12:30:02;;;;;;;8.37;5.27;;;;;;;;;;5032437;28;20820;-82
2021/08/29 12:32:29;;;;;;;7.40;5.87;;;;;;;;;;5033081;28;20432;-82
2021/08/29 12:34:58;;;;;;;7.97;5.97;;;;;;;;;;5014999;28;20413;-82
2021/08/29 12:37:24;;;;;;;5.50;4.93;;;;;;;;;;5015134;28;20477;-82
2021/08/29 12:40:11;;;;;;;6.73;5.50;;;;;;;;;;5032316;28;20484;-81
2021/08/29 12:42:41;;;;;;;7.90;5.93;;;;;;;;;;5032563;28;20515;-81
2021/08/29 12:45:08;;;;;;;6.27;5.77;;;;;;;;;;5032755;28;20437;-82
2021/08/29 12:47:35;;;;;;;7.10;6.40;;;;;;;;;;5032393;28;20417;-82
2021/08/29 12:50:03;;;;;;;8.07;5.80;;;;;;;;;;5014480;28;20456;-82
2021/08/29 12:52:41;;;;;;;8.67;7.43;;;;;;;;;;5032654;28;20508;-83
2021/08/29 12:55:10;;;;;;;12.53;7.10;;;;;;;;;;5035829;28;20405;-82
2021/08/29 12:57:36;;;;;;;6.53;5.93;;;;;;;;;;5036221;28;20809;-82
2021/08/29 13:00:06;;;;;;;7.43;5.53;;;;;;;;;;5035954;28;20514;-83
2021/08/29 13:02:38;;;;;;;7.67;6.10;;;;;;;;;;5036140;28;20453;-82
2021/08/29 13:05:05;;;;;;;9.93;6.60;;;;;;;;;;5036344;28;20412;-82
2021/08/29 13:07:45;;;;;;;6.50;5.90;;;;;;;;;;5018294;28;20440;-82
2021/08/29 13:10:12;;;;;;;10.57;6.10;;;;;;;;;;5035815;28;20429;-81
2021/08/29 13:12:39;;;;;;;7.63;5.70;;;;;;;;;;5018241;28;20475;-81
2021/08/29 13:15:05;;;;;;;9.37;6.77;;;;;;;;;;5035744;28;20479;-81
2021/08/29 13:17:31;;;;;;;8.57;5.80;;;;;;;;;;5017520;28;20768;-81
2021/08/29 13:20:02;;;;;;;8.03;6.10;;;;;;;;;;5017829;28;20502;-82
2021/08/29 13:22:30;;;;;;;7.13;6.27;;;;;;;;;;5035473;28;20958;-82
2021/08/29 13:24:56;;;;;;;7.47;6.57;;;;;;;;;;5036068;28;20401;-82
2021/08/29 13:27:22;;;;;;;8.50;7.67;;;;;;;;;;5036120;28;20762;-82
2021/08/29 13:29:49;;;;;;;7.47;6.70;;;;;;;;;;5035517;28;20428;-83
2021/08/29 13:32:15;;;;;;;7.50;6.70;;;;;;;;;;5035704;28;21000;-83
2021/08/29 13:34:41;;;;;;;9.47;6.70;;;;;;;;;;5035980;28;20420;-84
2021/08/29 13:37:10;;;;;;;7.07;6.37;;;;;;;;;;5051162;28;20432;-82
2021/08/29 13:39:36;;;;;;;9.27;6.53;;;;;;;;;;5035106;28;20464;-82
2021/08/29 13:42:14;;;;;;;9.43;6.13;;;;;;;;;;5017954;28;20553;-83
2021/08/29 13:44:44;;;;;;;5.90;5.40;;;;;;;;;;5035657;28;20905;-82
2021/08/29 13:47:10;;;;;;;6.40;5.00;;;;;;;;;;5017740;28;20444;-83
2021/08/29 13:49:37;;;;;;;5.73;5.10;;;;;;;;;;5035248;28;20484;-82
2021/08/29 13:52:03;;;;;;;5.40;4.90;;;;;;;;;;5035245;28;20962;-82
2021/08/29 13:54:29;;;;;;;6.50;5.90;;;;;;;;;;5017993;28;20417;-80
2021/08/29 13:56:55;;;;;;;9.10;5.53;;;;;;;;;;5035366;28;20988;-82
2021/08/29 13:59:20;;;;;;;5.60;5.10;;;;;;;;;;5034826;28;20440;-82
2021/08/29 14:01:46;;;;;;;6.40;5.80;;;;;;;;;;5017204;28;20925;-82
2021/08/29 14:04:12;;;;;;;6.83;5.83;;;;;;;;;;5034892;28;20471;-81
2021/08/29 14:06:38;;;;;;;6.77;5.80;;;;;;;;;;5034073;28;20972;-82
2021/08/29 14:09:04;;;;;;;7.27;6.10;;;;;;;;;;5034828;28;20439;-82
2021/08/29 14:11:30;;;;;;;7.03;6.33;;;;;;;;;;5035456;28;20416;-82
2021/08/29 14:13:56;;;;;;;6.77;5.97;;;;;;;;;;5035298;28;20425;-81
2021/08/29 14:16:22;;;;;;;6.00;4.70;;;;;;;;;;5035137;28;20453;-81
2021/08/29 14:18:48;;;;;;;4.67;4.27;;;;;;;;;;5015917;28;20944;-82
2021/08/29 14:21:16;;;;;;;5.63;5.13;;;;;;;;;;5033753;28;20417;-81
2021/08/29 14:23:42;;;;;;;7.80;5.20;;;;;;;;;;5016826;28;20445;-81
2021/08/29 14:26:08;;;;;;;4.17;3.87;;;;;;;;;;5033953;28;20412;-81
2021/08/29 14:28:34;;;;;;;4.83;4.43;;;;;;;;;;5033557;28;20409;-80
2021/08/29 14:31:01;;;;;;;4.40;4.00;;;;;;;;;;5016423;28;20468;-81
2021/08/29 14:33:27;;;;;;;3.60;3.30;;;;;;;;;;5034704;28;20747;-81